sensor_id;sensor_type;location;lat;lon;timestamp;temperature;humidity
5617;DHT22;2830;50.656;7.568;2023-08-24T00:01:49;17.30;99.90
5617;DHT22;2830;50.656;7.568;2023-08-24T00:04:15;17.30;99.90
5617;DHT22;2830;50.656;7.568;2023-08-24T00:06:42;17.30;99.90
5617;DHT22;2830;50.656;7.568;2023-08-24T00:09:09;17.30;99.90
5617;DHT22;2830;50.656;7.568;2023-08-24T00:11:35;17.00;99.90
5617;DHT22;2830;50.656;7.568;2023-08-24T00:14:02;16.90;99.90
5617;DHT22;2830;50.656;7.568;2023-08-24T00:16:29;17.00;99.90
5617;DHT22;2830;50.656;7.568;2023-08-24T00:18:56;17.00;99.90
5617;DHT22;2830;50.656;7.568;2023-08-24T00:21:22;17.10;99.90
5617;DHT22;2830;50.656;7.568;2023-08-24T00:23:51;17.00;99.90
5617;DHT22;2830;50.656;7.568;2023-08-24T00:26:18;17.00;99.90
5617;DHT22;2830;50.656;7.568;2023-08-24T00:28:44;17.00;99.90
5617;DHT22;2830;50.656;7.568;2023-08-24T00:31:12;17.00;99.90
5617;DHT22;2830;50.656;7.568;2023-08-24T00:33:39;17.00;99.90
5617;DHT22;2830;50.656;7.568;2023-08-24T00:36:06;16.80;99.90
5617;DHT22;2830;50.656;7.568;2023-08-24T00:38:33;16.60;99.90
5617;DHT22;2830;50.656;7.568;2023-08-24T00:41:04;16.60;99.90
5617;DHT22;2830;50.656;7.568;2023-08-24T00:43:31;16.60;99.90
5617;DHT22;2830;50.656;7.568;2023-08-24T00:46:00;16.70;99.90
5617;DHT22;2830;50.656;7.568;2023-08-24T00:48:27;16.70;99.90
5617;DHT22;2830;50.656;7.568;2023-08-24T00:50:57;16.60;99.90
5617;DHT22;2830;50.656;7.568;2023-08-24T00:53:26;16.60;99.90
5617;DHT22;2830;50.656;7.568;2023-08-24T00:55:53;16.70;99.90
5617;DHT22;2830;50.656;7.568;2023-08-24T00:58:21;16.70;99.90
5617;DHT22;2830;50.656;7.568;2023-08-24T01:00:50;16.70;99.90
5617;DHT22;2830;50.656;7.568;2023-08-24T01:03:17;16.70;99.90
5617;DHT22;2830;50.656;7.568;2023-08-24T01:05:44;16.80;99.90
5617;DHT22;2830;50.656;7.568;2023-08-24T01:08:11;16.70;99.90
5617;DHT22;2830;50.656;7.568;2023-08-24T01:13:43;16.70;99.90
5617;DHT22;2830;50.656;7.568;2023-08-24T01:16:17;16.70;99.90
5617;DHT22;2830;50.656;7.568;2023-08-24T01:18:45;16.70;99.90
5617;DHT22;2830;50.656;7.568;2023-08-24T01:21:14;16.80;99.90
5617;DHT22;2830;50.656;7.568;2023-08-24T01:23:46;16.70;99.90
5617;DHT22;2830;50.656;7.568;2023-08-24T01:26:20;16.70;99.90
5617;DHT22;2830;50.656;7.568;2023-08-24T01:28:47;16.70;99.90
5617;DHT22;2830;50.656;7.568;2023-08-24T01:31:14;16.70;99.90
5617;DHT22;2830;50.656;7.568;2023-08-24T01:33:46;16.60;99.90
5617;DHT22;2830;50.656;7.568;2023-08-24T01:36:14;16.60;99.90
5617;DHT22;2830;50.656;7.568;2023-08-24T01:38:44;16.60;99.90
5617;DHT22;2830;50.656;7.568;2023-08-24T01:41:24;16.50;99.90
5617;DHT22;2830;50.656;7.568;2023-08-24T01:43:53;16.20;99.90
5617;DHT22;2830;50.656;7.568;2023-08-24T01:46:22;16.10;99.90
5617;DHT22;2830;50.656;7.568;2023-08-24T01:48:49;16.10;99.90
5617;DHT22;2830;50.656;7.568;2023-08-24T01:51:17;16.20;99.90
5617;DHT22;2830;50.656;7.568;2023-08-24T01:53:45;16.30;99.90
5617;DHT22;2830;50.656;7.568;2023-08-24T01:56:15;16.30;99.90
5617;DHT22;2830;50.656;7.568;2023-08-24T01:58:42;16.40;99.90
5617;DHT22;2830;50.656;7.568;2023-08-24T02:01:09;16.40;99.90
5617;DHT22;2830;50.656;7.568;2023-08-24T02:03:37;16.40;99.90
5617;DHT22;2830;50.656;7.568;2023-08-24T02:06:06;16.40;99.90
5617;DHT22;2830;50.656;7.568;2023-08-24T02:08:34;16.40;99.90
5617;DHT22;2830;50.656;7.568;2023-08-24T02:11:01;16.40;99.90
5617;DHT22;2830;50.656;7.568;2023-08-24T02:13:27;16.40;99.90
5617;DHT22;2830;50.656;7.568;2023-08-24T02:16:04;16.50;99.90
5617;DHT22;2830;50.656;7.568;2023-08-24T02:18:32;16.20;99.90
5617;DHT22;2830;50.656;7.568;2023-08-24T02:20:59;16.00;99.90
5617;DHT22;2830;50.656;7.568;2023-08-24T02:23:25;15.90;99.90
5617;DHT22;2830;50.656;7.568;2023-08-24T02:25:52;16.00;99.90
5617;DHT22;2830;50.656;7.568;2023-08-24T02:28:19;16.00;99.90
5617;DHT22;2830;50.656;7.568;2023-08-24T02:30:45;16.10;99.90
5617;DHT22;2830;50.656;7.568;2023-08-24T02:33:12;16.10;99.90
5617;DHT22;2830;50.656;7.568;2023-08-24T02:35:39;16.10;99.90
5617;DHT22;2830;50.656;7.568;2023-08-24T02:38:06;16.10;99.90
5617;DHT22;2830;50.656;7.568;2023-08-24T02:40:32;16.20;99.90
5617;DHT22;2830;50.656;7.568;2023-08-24T02:42:59;16.30;99.90
5617;DHT22;2830;50.656;7.568;2023-08-24T02:45:26;16.40;99.90
5617;DHT22;2830;50.656;7.568;2023-08-24T02:47:52;16.50;99.90
5617;DHT22;2830;50.656;7.568;2023-08-24T02:50:19;16.60;99.90
5617;DHT22;2830;50.656;7.568;2023-08-24T02:52:46;16.50;99.90
5617;DHT22;2830;50.656;7.568;2023-08-24T02:55:13;16.20;99.90
5617;DHT22;2830;50.656;7.568;2023-08-24T02:57:40;16.20;99.90
5617;DHT22;2830;50.656;7.568;2023-08-24T03:00:07;16.30;99.90
5617;DHT22;2830;50.656;7.568;2023-08-24T03:02:34;16.40;99.90
5617;DHT22;2830;50.656;7.568;2023-08-24T03:05:00;16.40;99.90
5617;DHT22;2830;50.656;7.568;2023-08-24T03:07:27;16.40;99.90
5617;DHT22;2830;50.656;7.568;2023-08-24T03:09:55;16.40;99.90
5617;DHT22;2830;50.656;7.568;2023-08-24T03:12:22;16.50;99.90
5617;DHT22;2830;50.656;7.568;2023-08-24T03:14:51;16.60;99.90
5617;DHT22;2830;50.656;7.568;2023-08-24T03:17:19;16.50;99.90
5617;DHT22;2830;50.656;7.568;2023-08-24T03:19:46;16.40;99.90
5617;DHT22;2830;50.656;7.568;2023-08-24T03:22:13;16.40;99.90
5617;DHT22;2830;50.656;7.568;2023-08-24T03:24:39;16.50;99.90
5617;DHT22;2830;50.656;7.568;2023-08-24T03:27:06;16.40;99.90
5617;DHT22;2830;50.656;7.568;2023-08-24T03:29:33;16.50;99.90
5617;DHT22;2830;50.656;7.568;2023-08-24T03:31:59;16.50;99.90
5617;DHT22;2830;50.656;7.568;2023-08-24T03:34:26;16.50;99.90
5617;DHT22;2830;50.656;7.568;2023-08-24T03:36:53;16.60;99.90
5617;DHT22;2830;50.656;7.568;2023-08-24T03:39:20;16.60;99.90
5617;DHT22;2830;50.656;7.568;2023-08-24T03:41:47;16.60;99.90
5617;DHT22;2830;50.656;7.568;2023-08-24T03:44:14;16.40;99.90
5617;DHT22;2830;50.656;7.568;2023-08-24T03:46:40;16.40;99.90
5617;DHT22;2830;50.656;7.568;2023-08-24T03:49:08;16.40;99.90
5617;DHT22;2830;50.656;7.568;2023-08-24T03:51:34;16.30;99.90
5617;DHT22;2830;50.656;7.568;2023-08-24T03:54:01;16.40;99.90
5617;DHT22;2830;50.656;7.568;2023-08-24T03:56:29;16.40;99.90
5617;DHT22;2830;50.656;7.568;2023-08-24T03:58:56;16.30;99.90
5617;DHT22;2830;50.656;7.568;2023-08-24T04:01:23;16.30;99.90
5617;DHT22;2830;50.656;7.568;2023-08-24T04:03:49;16.40;99.90
5617;DHT22;2830;50.656;7.568;2023-08-24T04:06:18;16.40;99.90
5617;DHT22;2830;50.656;7.568;2023-08-24T04:08:46;16.40;99.90
5617;DHT22;2830;50.656;7.568;2023-08-24T04:11:12;16.60;99.90
5617;DHT22;2830;50.656;7.568;2023-08-24T04:13:39;16.50;99.90
5617;DHT22;2830;50.656;7.568;2023-08-24T04:16:06;16.60;99.90
5617;DHT22;2830;50.656;7.568;2023-08-24T04:18:33;16.60;99.90
5617;DHT22;2830;50.656;7.568;2023-08-24T04:21:00;16.70;99.90
5617;DHT22;2830;50.656;7.568;2023-08-24T04:23:27;16.70;99.90
5617;DHT22;2830;50.656;7.568;2023-08-24T04:25:54;16.70;99.90
5617;DHT22;2830;50.656;7.568;2023-08-24T04:28:21;16.80;99.90
5617;DHT22;2830;50.656;7.568;2023-08-24T04:30:56;16.80;99.90
5617;DHT22;2830;50.656;7.568;2023-08-24T04:33:23;16.80;99.90
5617;DHT22;2830;50.656;7.568;2023-08-24T04:35:50;16.70;99.90
5617;DHT22;2830;50.656;7.568;2023-08-24T04:38:17;16.70;99.90
5617;DHT22;2830;50.656;7.568;2023-08-24T04:40:55;16.70;99.90
5617;DHT22;2830;50.656;7.568;2023-08-24T04:43:23;16.60;99.90
5617;DHT22;2830;50.656;7.568;2023-08-24T04:45:54;16.70;99.90
5617;DHT22;2830;50.656;7.568;2023-08-24T04:48:22;16.90;99.90
5617;DHT22;2830;50.656;7.568;2023-08-24T04:50:49;17.00;99.90
5617;DHT22;2830;50.656;7.568;2023-08-24T04:53:17;17.00;99.90
5617;DHT22;2830;50.656;7.568;2023-08-24T04:55:45;16.90;99.90
5617;DHT22;2830;50.656;7.568;2023-08-24T04:58:12;17.00;99.90
5617;DHT22;2830;50.656;7.568;2023-08-24T05:00:40;17.10;99.90
5617;DHT22;2830;50.656;7.568;2023-08-24T05:03:07;17.20;99.90
5617;DHT22;2830;50.656;7.568;2023-08-24T05:05:35;17.20;99.90
5617;DHT22;2830;50.656;7.568;2023-08-24T05:08:04;17.30;99.90
5617;DHT22;2830;50.656;7.568;2023-08-24T05:10:33;17.20;99.90
5617;DHT22;2830;50.656;7.568;2023-08-24T05:13:00;17.10;99.90
5617;DHT22;2830;50.656;7.568;2023-08-24T05:15:27;17.10;99.90
5617;DHT22;2830;50.656;7.568;2023-08-24T05:17:53;17.20;99.90
5617;DHT22;2830;50.656;7.568;2023-08-24T05:20:22;17.20;99.90
5617;DHT22;2830;50.656;7.568;2023-08-24T05:22:49;17.20;99.90
5617;DHT22;2830;50.656;7.568;2023-08-24T05:25:16;17.00;99.90
5617;DHT22;2830;50.656;7.568;2023-08-24T05:27:43;17.00;99.90
5617;DHT22;2830;50.656;7.568;2023-08-24T05:30:10;17.00;99.90
5617;DHT22;2830;50.656;7.568;2023-08-24T05:32:37;17.00;99.90
5617;DHT22;2830;50.656;7.568;2023-08-24T05:35:06;17.00;99.90
5617;DHT22;2830;50.656;7.568;2023-08-24T05:37:33;17.10;99.90
5617;DHT22;2830;50.656;7.568;2023-08-24T05:40:01;17.20;99.90
5617;DHT22;2830;50.656;7.568;2023-08-24T05:42:30;17.20;99.90
5617;DHT22;2830;50.656;7.568;2023-08-24T05:44:57;17.30;99.90
5617;DHT22;2830;50.656;7.568;2023-08-24T05:47:24;17.20;99.90
5617;DHT22;2830;50.656;7.568;2023-08-24T05:49:51;17.30;99.90
5617;DHT22;2830;50.656;7.568;2023-08-24T05:52:17;17.20;99.90
5617;DHT22;2830;50.656;7.568;2023-08-24T05:54:44;17.20;99.90
5617;DHT22;2830;50.656;7.568;2023-08-24T05:57:11;17.30;99.90
5617;DHT22;2830;50.656;7.568;2023-08-24T05:59:37;17.30;99.90
5617;DHT22;2830;50.656;7.568;2023-08-24T06:02:05;17.30;99.90
5617;DHT22;2830;50.656;7.568;2023-08-24T06:04:32;17.20;99.90
5617;DHT22;2830;50.656;7.568;2023-08-24T06:06:58;17.20;99.90
5617;DHT22;2830;50.656;7.568;2023-08-24T06:09:25;17.20;99.90
5617;DHT22;2830;50.656;7.568;2023-08-24T06:11:52;17.30;99.90
5617;DHT22;2830;50.656;7.568;2023-08-24T06:14:19;17.40;99.90
5617;DHT22;2830;50.656;7.568;2023-08-24T06:16:46;17.40;99.90
5617;DHT22;2830;50.656;7.568;2023-08-24T06:19:12;17.50;99.90
5617;DHT22;2830;50.656;7.568;2023-08-24T06:21:39;17.60;99.90
5617;DHT22;2830;50.656;7.568;2023-08-24T06:24:06;17.70;99.90
5617;DHT22;2830;50.656;7.568;2023-08-24T06:26:32;17.70;99.90
5617;DHT22;2830;50.656;7.568;2023-08-24T06:28:59;17.80;99.90
5617;DHT22;2830;50.656;7.568;2023-08-24T06:31:26;17.90;99.90
5617;DHT22;2830;50.656;7.568;2023-08-24T06:33:53;18.10;99.90
5617;DHT22;2830;50.656;7.568;2023-08-24T06:36:23;18.20;99.90
5617;DHT22;2830;50.656;7.568;2023-08-24T06:39:36;18.40;99.90
5617;DHT22;2830;50.656;7.568;2023-08-24T06:42:09;18.60;99.90
5617;DHT22;2830;50.656;7.568;2023-08-24T06:44:38;18.80;99.90
5617;DHT22;2830;50.656;7.568;2023-08-24T06:47:13;18.80;99.90
5617;DHT22;2830;50.656;7.568;2023-08-24T06:49:43;18.80;99.90
5617;DHT22;2830;50.656;7.568;2023-08-24T06:52:09;18.70;99.90
5617;DHT22;2830;50.656;7.568;2023-08-24T06:54:36;18.80;99.90
5617;DHT22;2830;50.656;7.568;2023-08-24T06:57:03;18.80;99.90
5617;DHT22;2830;50.656;7.568;2023-08-24T06:59:30;19.00;99.90
5617;DHT22;2830;50.656;7.568;2023-08-24T07:01:56;19.40;99.90
5617;DHT22;2830;50.656;7.568;2023-08-24T07:04:25;19.80;99.90
5617;DHT22;2830;50.656;7.568;2023-08-24T07:06:53;20.20;99.90
5617;DHT22;2830;50.656;7.568;2023-08-24T07:09:20;20.70;99.90
5617;DHT22;2830;50.656;7.568;2023-08-24T07:11:48;21.30;99.90
5617;DHT22;2830;50.656;7.568;2023-08-24T07:14:15;22.00;99.90
5617;DHT22;2830;50.656;7.568;2023-08-24T07:16:41;22.30;99.90
5617;DHT22;2830;50.656;7.568;2023-08-24T07:19:09;22.70;99.90
5617;DHT22;2830;50.656;7.568;2023-08-24T07:21:36;22.90;99.90
5617;DHT22;2830;50.656;7.568;2023-08-24T07:24:03;23.60;99.90
5617;DHT22;2830;50.656;7.568;2023-08-24T07:26:30;24.20;99.90
5617;DHT22;2830;50.656;7.568;2023-08-24T07:28:58;25.00;99.90
5617;DHT22;2830;50.656;7.568;2023-08-24T07:31:26;25.60;99.90
5617;DHT22;2830;50.656;7.568;2023-08-24T07:33:53;26.20;99.90
5617;DHT22;2830;50.656;7.568;2023-08-24T07:36:20;26.60;99.90
5617;DHT22;2830;50.656;7.568;2023-08-24T07:38:47;27.00;99.90
5617;DHT22;2830;50.656;7.568;2023-08-24T07:41:14;27.90;99.90
5617;DHT22;2830;50.656;7.568;2023-08-24T07:43:41;28.40;99.90
5617;DHT22;2830;50.656;7.568;2023-08-24T07:46:07;28.80;99.90
5617;DHT22;2830;50.656;7.568;2023-08-24T07:48:35;29.40;99.90
5617;DHT22;2830;50.656;7.568;2023-08-24T07:51:02;30.30;98.90
5617;DHT22;2830;50.656;7.568;2023-08-24T07:53:29;30.20;99.60
5617;DHT22;2830;50.656;7.568;2023-08-24T07:55:56;30.10;97.00
5617;DHT22;2830;50.656;7.568;2023-08-24T07:58:24;30.30;97.80
5617;DHT22;2830;50.656;7.568;2023-08-24T08:00:51;30.50;95.50
5617;DHT22;2830;50.656;7.568;2023-08-24T08:03:19;30.70;95.50
5617;DHT22;2830;50.656;7.568;2023-08-24T08:05:47;30.10;95.90
5617;DHT22;2830;50.656;7.568;2023-08-24T08:08:14;30.40;96.10
5617;DHT22;2830;50.656;7.568;2023-08-24T08:10:41;30.60;94.90
5617;DHT22;2830;50.656;7.568;2023-08-24T08:13:09;31.00;93.00
5617;DHT22;2830;50.656;7.568;2023-08-24T08:15:38;31.60;93.00
5617;DHT22;2830;50.656;7.568;2023-08-24T08:18:05;31.60;90.00
5617;DHT22;2830;50.656;7.568;2023-08-24T08:20:32;31.70;91.80
5617;DHT22;2830;50.656;7.568;2023-08-24T08:22:59;32.20;89.50
5617;DHT22;2830;50.656;7.568;2023-08-24T08:25:26;32.40;88.00
5617;DHT22;2830;50.656;7.568;2023-08-24T08:27:53;32.80;86.60
5617;DHT22;2830;50.656;7.568;2023-08-24T08:30:19;33.50;83.30
5617;DHT22;2830;50.656;7.568;2023-08-24T08:32:47;33.50;80.20
5617;DHT22;2830;50.656;7.568;2023-08-24T08:35:14;33.20;81.30
5617;DHT22;2830;50.656;7.568;2023-08-24T08:37:40;33.40;80.20
5617;DHT22;2830;50.656;7.568;2023-08-24T08:40:10;33.50;76.70
5617;DHT22;2830;50.656;7.568;2023-08-24T08:42:37;33.50;76.20
5617;DHT22;2830;50.656;7.568;2023-08-24T08:45:08;33.50;75.10
5617;DHT22;2830;50.656;7.568;2023-08-24T08:47:35;33.10;79.50
5617;DHT22;2830;50.656;7.568;2023-08-24T08:50:03;33.50;76.00
5617;DHT22;2830;50.656;7.568;2023-08-24T08:52:34;33.40;77.40
5617;DHT22;2830;50.656;7.568;2023-08-24T08:55:01;34.20;76.20
5617;DHT22;2830;50.656;7.568;2023-08-24T08:57:27;35.20;68.60
5617;DHT22;2830;50.656;7.568;2023-08-24T08:59:58;35.30;66.80
5617;DHT22;2830;50.656;7.568;2023-08-24T09:02:25;35.40;67.70
5617;DHT22;2830;50.656;7.568;2023-08-24T09:04:52;35.70;68.10
5617;DHT22;2830;50.656;7.568;2023-08-24T09:07:19;35.20;65.30
5617;DHT22;2830;50.656;7.568;2023-08-24T09:09:47;34.80;66.80
5617;DHT22;2830;50.656;7.568;2023-08-24T09:12:14;35.00;64.90
5617;DHT22;2830;50.656;7.568;2023-08-24T09:14:40;34.60;64.20
5617;DHT22;2830;50.656;7.568;2023-08-24T09:17:08;34.20;63.80
5617;DHT22;2830;50.656;7.568;2023-08-24T09:19:35;34.40;63.90
5617;DHT22;2830;50.656;7.568;2023-08-24T09:22:07;34.40;61.60
5617;DHT22;2830;50.656;7.568;2023-08-24T09:24:35;33.80;63.60
5617;DHT22;2830;50.656;7.568;2023-08-24T09:27:15;34.20;61.50
5617;DHT22;2830;50.656;7.568;2023-08-24T09:29:42;34.90;65.90
5617;DHT22;2830;50.656;7.568;2023-08-24T09:32:09;35.70;61.50
5617;DHT22;2830;50.656;7.568;2023-08-24T09:34:37;36.90;61.50
5617;DHT22;2830;50.656;7.568;2023-08-24T09:37:04;37.10;58.30
5617;DHT22;2830;50.656;7.568;2023-08-24T09:39:31;37.20;57.40
5617;DHT22;2830;50.656;7.568;2023-08-24T09:42:00;37.10;57.60
5617;DHT22;2830;50.656;7.568;2023-08-24T09:44:31;35.80;56.80
5617;DHT22;2830;50.656;7.568;2023-08-24T09:46:58;34.50;60.10
5617;DHT22;2830;50.656;7.568;2023-08-24T09:49:26;34.80;58.80
5617;DHT22;2830;50.656;7.568;2023-08-24T09:51:57;35.90;57.80
5617;DHT22;2830;50.656;7.568;2023-08-24T09:54:26;35.80;56.70
5617;DHT22;2830;50.656;7.568;2023-08-24T09:56:55;35.90;55.80
5617;DHT22;2830;50.656;7.568;2023-08-24T09:59:24;35.40;56.50
5617;DHT22;2830;50.656;7.568;2023-08-24T10:01:54;34.90;57.60
5617;DHT22;2830;50.656;7.568;2023-08-24T10:04:25;35.70;57.30
5617;DHT22;2830;50.656;7.568;2023-08-24T10:07:08;36.40;56.50
5617;DHT22;2830;50.656;7.568;2023-08-24T10:09:52;36.10;53.80
5617;DHT22;2830;50.656;7.568;2023-08-24T10:12:24;34.20;57.10
5617;DHT22;2830;50.656;7.568;2023-08-24T10:15:00;33.30;59.80
5617;DHT22;2830;50.656;7.568;2023-08-24T10:17:31;33.00;59.30
5617;DHT22;2830;50.656;7.568;2023-08-24T10:20:00;32.40;60.60
5617;DHT22;2830;50.656;7.568;2023-08-24T10:22:34;31.80;61.50
5617;DHT22;2830;50.656;7.568;2023-08-24T10:25:02;31.30;61.40
5617;DHT22;2830;50.656;7.568;2023-08-24T10:27:29;30.90;63.20
5617;DHT22;2830;50.656;7.568;2023-08-24T10:29:56;30.40;65.00
5617;DHT22;2830;50.656;7.568;2023-08-24T10:32:25;30.10;66.40
5617;DHT22;2830;50.656;7.568;2023-08-24T10:34:53;29.90;66.90
5617;DHT22;2830;50.656;7.568;2023-08-24T10:37:27;29.40;69.00
5617;DHT22;2830;50.656;7.568;2023-08-24T10:39:54;29.30;70.50
5617;DHT22;2830;50.656;7.568;2023-08-24T10:42:21;29.60;72.90
5617;DHT22;2830;50.656;7.568;2023-08-24T10:44:48;30.10;70.40
5617;DHT22;2830;50.656;7.568;2023-08-24T10:47:20;30.60;71.10
5617;DHT22;2830;50.656;7.568;2023-08-24T10:52:30;30.60;70.00
5617;DHT22;2830;50.656;7.568;2023-08-24T10:54:56;30.80;70.20
5617;DHT22;2830;50.656;7.568;2023-08-24T10:57:34;31.10;71.00
5617;DHT22;2830;50.656;7.568;2023-08-24T11:00:09;31.30;69.90
5617;DHT22;2830;50.656;7.568;2023-08-24T11:02:44;31.40;70.80
5617;DHT22;2830;50.656;7.568;2023-08-24T11:05:41;31.10;70.80
5617;DHT22;2830;50.656;7.568;2023-08-24T11:08:08;30.80;69.90
5617;DHT22;2830;50.656;7.568;2023-08-24T11:13:16;30.70;71.30
5617;DHT22;2830;50.656;7.568;2023-08-24T11:15:45;30.80;74.20
5617;DHT22;2830;50.656;7.568;2023-08-24T11:20:46;31.30;72.50
5617;DHT22;2830;50.656;7.568;2023-08-24T11:23:15;31.40;70.50
5617;DHT22;2830;50.656;7.568;2023-08-24T11:25:42;31.20;72.20
5617;DHT22;2830;50.656;7.568;2023-08-24T11:28:09;31.40;71.10
5617;DHT22;2830;50.656;7.568;2023-08-24T11:30:36;31.80;72.00
5617;DHT22;2830;50.656;7.568;2023-08-24T11:33:03;32.90;71.20
5617;DHT22;2830;50.656;7.568;2023-08-24T11:35:35;33.50;66.00
5617;DHT22;2830;50.656;7.568;2023-08-24T11:38:02;33.30;65.50
5617;DHT22;2830;50.656;7.568;2023-08-24T11:40:30;33.70;64.10
5617;DHT22;2830;50.656;7.568;2023-08-24T11:42:57;33.10;63.70
5617;DHT22;2830;50.656;7.568;2023-08-24T11:45:24;32.80;65.50
5617;DHT22;2830;50.656;7.568;2023-08-24T11:47:56;32.80;67.10
5617;DHT22;2830;50.656;7.568;2023-08-24T11:50:24;32.70;64.60
5617;DHT22;2830;50.656;7.568;2023-08-24T11:52:52;32.60;65.20
5617;DHT22;2830;50.656;7.568;2023-08-24T11:55:21;32.60;64.70
5617;DHT22;2830;50.656;7.568;2023-08-24T11:57:48;32.50;67.20
5617;DHT22;2830;50.656;7.568;2023-08-24T12:00:15;32.10;67.70
5617;DHT22;2830;50.656;7.568;2023-08-24T12:02:43;31.60;69.60
5617;DHT22;2830;50.656;7.568;2023-08-24T12:05:21;31.30;69.20
5617;DHT22;2830;50.656;7.568;2023-08-24T12:07:48;31.20;70.80
5617;DHT22;2830;50.656;7.568;2023-08-24T12:10:16;30.90;73.30
5617;DHT22;2830;50.656;7.568;2023-08-24T12:12:43;31.10;73.40
5617;DHT22;2830;50.656;7.568;2023-08-24T12:15:16;31.00;70.00
5617;DHT22;2830;50.656;7.568;2023-08-24T12:17:44;31.10;71.60
5617;DHT22;2830;50.656;7.568;2023-08-24T12:20:21;31.00;72.90
5617;DHT22;2830;50.656;7.568;2023-08-24T12:22:54;30.90;71.70
5617;DHT22;2830;50.656;7.568;2023-08-24T12:25:24;30.80;71.50
5617;DHT22;2830;50.656;7.568;2023-08-24T12:27:52;30.80;73.60
5617;DHT22;2830;50.656;7.568;2023-08-24T12:30:20;30.90;74.60
5617;DHT22;2830;50.656;7.568;2023-08-24T12:32:48;31.10;70.70
5617;DHT22;2830;50.656;7.568;2023-08-24T12:35:17;31.10;75.60
5617;DHT22;2830;50.656;7.568;2023-08-24T12:37:44;30.80;72.00
5617;DHT22;2830;50.656;7.568;2023-08-24T12:40:12;30.30;74.40
5617;DHT22;2830;50.656;7.568;2023-08-24T12:42:39;29.90;73.90
5617;DHT22;2830;50.656;7.568;2023-08-24T12:45:06;29.50;78.30
5617;DHT22;2830;50.656;7.568;2023-08-24T12:47:33;29.40;79.30
5617;DHT22;2830;50.656;7.568;2023-08-24T12:50:05;29.40;83.30
5617;DHT22;2830;50.656;7.568;2023-08-24T12:52:32;29.20;84.00
5617;DHT22;2830;50.656;7.568;2023-08-24T12:54:58;29.10;82.30
5617;DHT22;2830;50.656;7.568;2023-08-24T12:57:25;29.00;88.10
5617;DHT22;2830;50.656;7.568;2023-08-24T12:59:52;28.80;86.90
5617;DHT22;2830;50.656;7.568;2023-08-24T13:02:21;28.60;86.80
5617;DHT22;2830;50.656;7.568;2023-08-24T13:04:59;28.40;86.80
5617;DHT22;2830;50.656;7.568;2023-08-24T13:07:27;28.00;85.70
5617;DHT22;2830;50.656;7.568;2023-08-24T13:09:54;27.80;89.20
5617;DHT22;2830;50.656;7.568;2023-08-24T13:12:21;27.70;93.70
5617;DHT22;2830;50.656;7.568;2023-08-24T13:14:48;27.40;92.30
5617;DHT22;2830;50.656;7.568;2023-08-24T13:17:14;27.20;97.00
5617;DHT22;2830;50.656;7.568;2023-08-24T13:19:41;27.10;96.90
5617;DHT22;2830;50.656;7.568;2023-08-24T13:22:08;26.90;99.90
5617;DHT22;2830;50.656;7.568;2023-08-24T13:24:35;26.80;99.90
5617;DHT22;2830;50.656;7.568;2023-08-24T13:27:02;26.70;99.90
5617;DHT22;2830;50.656;7.568;2023-08-24T13:29:29;26.50;99.90
5617;DHT22;2830;50.656;7.568;2023-08-24T13:31:56;26.30;99.90
5617;DHT22;2830;50.656;7.568;2023-08-24T13:34:23;26.20;99.90
5617;DHT22;2830;50.656;7.568;2023-08-24T13:36:49;26.20;99.90
5617;DHT22;2830;50.656;7.568;2023-08-24T13:39:16;26.10;99.90
5617;DHT22;2830;50.656;7.568;2023-08-24T13:41:43;26.10;99.90
5617;DHT22;2830;50.656;7.568;2023-08-24T13:44:10;25.90;99.90
5617;DHT22;2830;50.656;7.568;2023-08-24T13:46:37;25.80;99.90
5617;DHT22;2830;50.656;7.568;2023-08-24T13:49:04;25.70;99.90
5617;DHT22;2830;50.656;7.568;2023-08-24T13:51:30;25.50;99.90
5617;DHT22;2830;50.656;7.568;2023-08-24T13:53:57;25.40;99.90
5617;DHT22;2830;50.656;7.568;2023-08-24T13:56:24;25.30;99.90
5617;DHT22;2830;50.656;7.568;2023-08-24T13:58:50;25.20;99.90
5617;DHT22;2830;50.656;7.568;2023-08-24T14:01:17;25.30;99.90
5617;DHT22;2830;50.656;7.568;2023-08-24T14:03:44;25.30;99.90
5617;DHT22;2830;50.656;7.568;2023-08-24T14:06:11;25.20;99.90
5617;DHT22;2830;50.656;7.568;2023-08-24T14:08:37;25.10;99.90
5617;DHT22;2830;50.656;7.568;2023-08-24T14:11:04;25.20;99.90
5617;DHT22;2830;50.656;7.568;2023-08-24T14:13:31;25.30;99.90
5617;DHT22;2830;50.656;7.568;2023-08-24T14:15:58;25.50;99.90
5617;DHT22;2830;50.656;7.568;2023-08-24T14:18:24;25.50;99.90
5617;DHT22;2830;50.656;7.568;2023-08-24T14:20:51;25.40;99.90
5617;DHT22;2830;50.656;7.568;2023-08-24T14:23:18;25.50;99.90
5617;DHT22;2830;50.656;7.568;2023-08-24T14:25:46;25.50;99.90
5617;DHT22;2830;50.656;7.568;2023-08-24T14:28:13;25.50;99.90
5617;DHT22;2830;50.656;7.568;2023-08-24T14:30:41;25.60;99.90
5617;DHT22;2830;50.656;7.568;2023-08-24T14:33:07;25.70;99.90
5617;DHT22;2830;50.656;7.568;2023-08-24T14:35:34;25.60;99.90
5617;DHT22;2830;50.656;7.568;2023-08-24T14:38:01;25.60;99.90
5617;DHT22;2830;50.656;7.568;2023-08-24T14:40:28;25.40;99.90
5617;DHT22;2830;50.656;7.568;2023-08-24T14:42:54;25.30;99.90
5617;DHT22;2830;50.656;7.568;2023-08-24T14:45:21;25.30;99.90
5617;DHT22;2830;50.656;7.568;2023-08-24T14:47:48;25.40;99.90
5617;DHT22;2830;50.656;7.568;2023-08-24T14:50:15;25.60;99.90
5617;DHT22;2830;50.656;7.568;2023-08-24T14:52:42;25.60;99.90
5617;DHT22;2830;50.656;7.568;2023-08-24T14:55:09;25.70;99.90
5617;DHT22;2830;50.656;7.568;2023-08-24T14:57:36;25.90;99.90
5617;DHT22;2830;50.656;7.568;2023-08-24T15:00:03;25.80;99.90
5617;DHT22;2830;50.656;7.568;2023-08-24T15:02:31;25.70;99.90
5617;DHT22;2830;50.656;7.568;2023-08-24T15:05:01;25.70;99.90
5617;DHT22;2830;50.656;7.568;2023-08-24T15:07:30;25.80;99.90
5617;DHT22;2830;50.656;7.568;2023-08-24T15:09:57;25.70;99.90
5617;DHT22;2830;50.656;7.568;2023-08-24T15:12:23;25.40;99.90
5617;DHT22;2830;50.656;7.568;2023-08-24T15:14:58;25.30;99.90
5617;DHT22;2830;50.656;7.568;2023-08-24T15:17:25;25.20;99.90
5617;DHT22;2830;50.656;7.568;2023-08-24T15:19:54;25.20;99.90
5617;DHT22;2830;50.656;7.568;2023-08-24T15:22:21;25.00;99.90
5617;DHT22;2830;50.656;7.568;2023-08-24T15:24:47;24.80;99.90
5617;DHT22;2830;50.656;7.568;2023-08-24T15:27:14;24.80;99.90
5617;DHT22;2830;50.656;7.568;2023-08-24T15:29:41;24.60;99.90
5617;DHT22;2830;50.656;7.568;2023-08-24T15:32:09;24.60;99.90
5617;DHT22;2830;50.656;7.568;2023-08-24T15:34:35;24.60;99.90
5617;DHT22;2830;50.656;7.568;2023-08-24T15:37:02;24.40;99.90
5617;DHT22;2830;50.656;7.568;2023-08-24T15:39:36;24.30;99.90
5617;DHT22;2830;50.656;7.568;2023-08-24T15:42:05;24.20;99.90
5617;DHT22;2830;50.656;7.568;2023-08-24T15:44:33;24.20;99.90
5617;DHT22;2830;50.656;7.568;2023-08-24T15:47:00;24.20;99.90
5617;DHT22;2830;50.656;7.568;2023-08-24T15:49:27;24.20;99.90
5617;DHT22;2830;50.656;7.568;2023-08-24T15:51:54;24.10;99.90
5617;DHT22;2830;50.656;7.568;2023-08-24T15:54:23;23.80;99.90
5617;DHT22;2830;50.656;7.568;2023-08-24T15:56:51;23.60;99.90
5617;DHT22;2830;50.656;7.568;2023-08-24T15:59:22;23.40;99.90
5617;DHT22;2830;50.656;7.568;2023-08-24T16:01:49;23.20;99.90
5617;DHT22;2830;50.656;7.568;2023-08-24T16:04:17;23.10;99.90
5617;DHT22;2830;50.656;7.568;2023-08-24T16:06:44;22.90;99.90
5617;DHT22;2830;50.656;7.568;2023-08-24T16:09:10;22.80;99.90
5617;DHT22;2830;50.656;7.568;2023-08-24T16:11:37;22.70;99.90
5617;DHT22;2830;50.656;7.568;2023-08-24T16:14:04;22.70;99.90
5617;DHT22;2830;50.656;7.568;2023-08-24T16:16:31;22.70;99.90
5617;DHT22;2830;50.656;7.568;2023-08-24T16:19:00;22.60;99.90